Terminal Aerodrome Forecast
Issued by NWS

Current Version | Previous Version | Text Only | Print | Product List | Glossary Off
Versions: 1 2 3 4 5 6 7 8 9 10 11 12 13 14 15 16 17 18 19 20 21

000
FTUS41 KILN 171736
TAFLUK
TAF
KLUK 171736Z 1718/1818 16009KT P6SM SCT200
     FM180300 18005KT P6SM VCSH BKN080 WS020/19040KT
     FM180500 19011KT P6SM -SHRA OVC060 WS020/20045KT
     FM180900 20015G27KT P6SM -SHRA OVC015
     FM181500 20018G30KT P6SM VCSH OVC015=

USA.gov is the U.S. government's official web portal to all federal, state and local government web resources and services.